sensor_id;sensor_type;location;lat;lon;timestamp;pressure;altitude;pressure_sealevel;temperature;humidity
21728;BME280;11026;50.560;17.852;2023-03-01T00:01:49;100926.78;;;-3.96;100.00
21728;BME280;11026;50.560;17.852;2023-03-01T00:04:17;100930.38;;;-4.14;100.00
21728;BME280;11026;50.560;17.852;2023-03-01T00:06:44;100932.56;;;-4.25;100.00
21728;BME280;11026;50.560;17.852;2023-03-01T00:09:15;100935.66;;;-4.11;100.00
21728;BME280;11026;50.560;17.852;2023-03-01T00:11:45;100932.66;;;-4.00;100.00
21728;BME280;11026;50.560;17.852;2023-03-01T00:14:13;100929.28;;;-3.97;100.00
21728;BME280;11026;50.560;17.852;2023-03-01T00:16:42;100932.69;;;-4.22;100.00
21728;BME280;11026;50.560;17.852;2023-03-01T00:19:13;100934.75;;;-4.12;100.00
21728;BME280;11026;50.560;17.852;2023-03-01T00:21:41;100929.16;;;-4.00;100.00
21728;BME280;11026;50.560;17.852;2023-03-01T00:24:09;100909.84;;;-3.87;100.00
21728;BME280;11026;50.560;17.852;2023-03-01T00:26:37;100919.31;;;-3.88;100.00
21728;BME280;11026;50.560;17.852;2023-03-01T00:29:05;100926.25;;;-4.09;100.00
21728;BME280;11026;50.560;17.852;2023-03-01T00:31:33;100924.50;;;-4.33;100.00
21728;BME280;11026;50.560;17.852;2023-03-01T00:34:04;100928.03;;;-4.31;100.00
21728;BME280;11026;50.560;17.852;2023-03-01T00:36:35;100926.84;;;-4.16;100.00
21728;BME280;11026;50.560;17.852;2023-03-01T00:39:05;100927.09;;;-4.10;100.00
21728;BME280;11026;50.560;17.852;2023-03-01T00:41:35;100921.22;;;-4.29;100.00
21728;BME280;11026;50.560;17.852;2023-03-01T00:44:03;100922.38;;;-4.21;100.00
21728;BME280;11026;50.560;17.852;2023-03-01T00:46:32;100920.78;;;-4.17;100.00
21728;BME280;11026;50.560;17.852;2023-03-01T00:49:06;100932.97;;;-4.37;100.00
21728;BME280;11026;50.560;17.852;2023-03-01T00:51:33;100924.50;;;-4.33;100.00
21728;BME280;11026;50.560;17.852;2023-03-01T00:54:02;100926.56;;;-4.24;100.00
21728;BME280;11026;50.560;17.852;2023-03-01T00:56:30;100924.78;;;-4.03;100.00
21728;BME280;11026;50.560;17.852;2023-03-01T00:58:59;100918.75;;;-4.03;100.00
21728;BME280;11026;50.560;17.852;2023-03-01T01:01:29;100919.75;;;-4.00;100.00
21728;BME280;11026;50.560;17.852;2023-03-01T01:04:04;100922.50;;;-4.17;100.00
21728;BME280;11026;50.560;17.852;2023-03-01T01:06:35;100921.78;;;-4.13;100.00
21728;BME280;11026;50.560;17.852;2023-03-01T01:09:12;100914.66;;;-3.97;100.00
21728;BME280;11026;50.560;17.852;2023-03-01T01:11:51;100917.19;;;-3.98;100.00
21728;BME280;11026;50.560;17.852;2023-03-01T01:14:19;100916.03;;;-4.29;100.00
21728;BME280;11026;50.560;17.852;2023-03-01T01:16:47;100917.53;;;-4.58;100.00
21728;BME280;11026;50.560;17.852;2023-03-01T01:19:15;100917.59;;;-4.34;100.00
21728;BME280;11026;50.560;17.852;2023-03-01T01:21:43;100915.88;;;-4.33;100.00
21728;BME280;11026;50.560;17.852;2023-03-01T01:24:12;100921.72;;;-4.39;100.00
21728;BME280;11026;50.560;17.852;2023-03-01T01:26:39;100909.72;;;-4.14;100.00
21728;BME280;11026;50.560;17.852;2023-03-01T01:29:07;100902.78;;;-4.15;100.00
21728;BME280;11026;50.560;17.852;2023-03-01T01:31:37;100910.78;;;-4.54;100.00
21728;BME280;11026;50.560;17.852;2023-03-01T01:34:07;100911.88;;;-4.91;100.00
21728;BME280;11026;50.560;17.852;2023-03-01T01:36:35;100910.78;;;-4.98;100.00
21728;BME280;11026;50.560;17.852;2023-03-01T01:39:04;100901.03;;;-5.05;100.00
21728;BME280;11026;50.560;17.852;2023-03-01T01:41:31;100900.88;;;-5.08;100.00
21728;BME280;11026;50.560;17.852;2023-03-01T01:44:33;100896.81;;;-5.03;100.00
21728;BME280;11026;50.560;17.852;2023-03-01T01:47:06;100888.44;;;-4.97;100.00
21728;BME280;11026;50.560;17.852;2023-03-01T01:49:46;100881.59;;;-4.52;100.00
21728;BME280;11026;50.560;17.852;2023-03-01T01:52:26;100885.28;;;-4.67;100.00
21728;BME280;11026;50.560;17.852;2023-03-01T01:55:00;100880.50;;;-4.58;100.00
21728;BME280;11026;50.560;17.852;2023-03-01T01:57:41;100878.97;;;-4.53;100.00
21728;BME280;11026;50.560;17.852;2023-03-01T02:00:16;100872.19;;;-4.72;100.00
21728;BME280;11026;50.560;17.852;2023-03-01T02:02:45;100868.03;;;-4.68;100.00
21728;BME280;11026;50.560;17.852;2023-03-01T02:05:38;100864.13;;;-4.59;100.00
21728;BME280;11026;50.560;17.852;2023-03-01T02:08:12;100857.72;;;-4.68;100.00
21728;BME280;11026;50.560;17.852;2023-03-01T02:10:49;100852.41;;;-4.72;100.00
21728;BME280;11026;50.560;17.852;2023-03-01T02:13:18;100851.72;;;-4.90;100.00
21728;BME280;11026;50.560;17.852;2023-03-01T02:15:46;100849.34;;;-5.06;100.00
21728;BME280;11026;50.560;17.852;2023-03-01T02:18:17;100840.44;;;-5.14;100.00
21728;BME280;11026;50.560;17.852;2023-03-01T02:23:54;100848.06;;;-4.95;100.00
21728;BME280;11026;50.560;17.852;2023-03-01T02:26:45;100863.66;;;-4.92;100.00
21728;BME280;11026;50.560;17.852;2023-03-01T02:29:14;100871.63;;;-5.08;100.00
21728;BME280;11026;50.560;17.852;2023-03-01T02:31:41;100874.47;;;-5.02;100.00
21728;BME280;11026;50.560;17.852;2023-03-01T02:34:17;100873.63;;;-5.01;100.00
21728;BME280;11026;50.560;17.852;2023-03-01T02:36:52;100867.34;;;-5.08;100.00
21728;BME280;11026;50.560;17.852;2023-03-01T02:39:28;100858.81;;;-4.84;100.00
21728;BME280;11026;50.560;17.852;2023-03-01T02:41:58;100866.69;;;-4.81;100.00
21728;BME280;11026;50.560;17.852;2023-03-01T02:44:26;100863.94;;;-4.86;100.00
21728;BME280;11026;50.560;17.852;2023-03-01T02:46:56;100856.41;;;-4.80;100.00
21728;BME280;11026;50.560;17.852;2023-03-01T02:49:27;100867.09;;;-4.93;100.00
21728;BME280;11026;50.560;17.852;2023-03-01T02:55:11;100868.00;;;-5.13;100.00
21728;BME280;11026;50.560;17.852;2023-03-01T02:57:43;100866.94;;;-4.96;100.00
21728;BME280;11026;50.560;17.852;2023-03-01T03:00:31;100873.19;;;-5.12;100.00
21728;BME280;11026;50.560;17.852;2023-03-01T03:03:01;100871.41;;;-5.14;100.00
21728;BME280;11026;50.560;17.852;2023-03-01T03:05:32;100864.50;;;-4.93;100.00
21728;BME280;11026;50.560;17.852;2023-03-01T03:08:02;100862.66;;;-4.96;100.00
21728;BME280;11026;50.560;17.852;2023-03-01T03:10:33;100869.69;;;-5.14;100.00
21728;BME280;11026;50.560;17.852;2023-03-01T03:13:08;100865.41;;;-5.13;100.00
21728;BME280;11026;50.560;17.852;2023-03-01T03:15:38;100869.41;;;-4.99;100.00
21728;BME280;11026;50.560;17.852;2023-03-01T03:18:09;100864.94;;;-5.03;100.00
21728;BME280;11026;50.560;17.852;2023-03-01T03:20:39;100866.34;;;-5.11;100.00
21728;BME280;11026;50.560;17.852;2023-03-01T03:23:07;100864.41;;;-5.17;100.00
21728;BME280;11026;50.560;17.852;2023-03-01T03:25:35;100856.63;;;-5.18;100.00
21728;BME280;11026;50.560;17.852;2023-03-01T03:28:06;100856.16;;;-5.08;100.00
21728;BME280;11026;50.560;17.852;2023-03-01T03:30:39;100866.63;;;-5.26;100.00
21728;BME280;11026;50.560;17.852;2023-03-01T03:33:09;100867.50;;;-5.26;100.00
21728;BME280;11026;50.560;17.852;2023-03-01T03:35:45;100854.06;;;-4.96;100.00
21728;BME280;11026;50.560;17.852;2023-03-01T03:38:14;100853.13;;;-4.98;100.00
21728;BME280;11026;50.560;17.852;2023-03-01T03:41:02;100849.34;;;-5.27;100.00
21728;BME280;11026;50.560;17.852;2023-03-01T03:43:32;100861.06;;;-5.35;100.00
21728;BME280;11026;50.560;17.852;2023-03-01T03:46:00;100846.66;;;-5.09;100.00
21728;BME280;11026;50.560;17.852;2023-03-01T03:48:40;100855.53;;;-5.24;100.00
21728;BME280;11026;50.560;17.852;2023-03-01T03:51:15;100850.00;;;-5.33;100.00
21728;BME280;11026;50.560;17.852;2023-03-01T03:53:44;100841.50;;;-5.09;100.00
21728;BME280;11026;50.560;17.852;2023-03-01T03:56:12;100836.34;;;-5.09;100.00
21728;BME280;11026;50.560;17.852;2023-03-01T03:58:41;100834.88;;;-5.24;100.00
21728;BME280;11026;50.560;17.852;2023-03-01T04:01:08;100833.38;;;-5.18;100.00
21728;BME280;11026;50.560;17.852;2023-03-01T04:03:36;100842.06;;;-5.16;100.00
21728;BME280;11026;50.560;17.852;2023-03-01T04:06:03;100848.25;;;-5.34;100.00
21728;BME280;11026;50.560;17.852;2023-03-01T04:08:32;100852.78;;;-5.49;100.00
21728;BME280;11026;50.560;17.852;2023-03-01T04:11:03;100847.22;;;-5.58;100.00
21728;BME280;11026;50.560;17.852;2023-03-01T04:13:53;100853.28;;;-5.37;100.00
21728;BME280;11026;50.560;17.852;2023-03-01T04:16:22;100846.47;;;-5.35;100.00
21728;BME280;11026;50.560;17.852;2023-03-01T04:18:49;100842.47;;;-5.49;100.00
21728;BME280;11026;50.560;17.852;2023-03-01T04:21:18;100841.16;;;-5.59;100.00
21728;BME280;11026;50.560;17.852;2023-03-01T04:23:55;100845.44;;;-5.80;100.00
21728;BME280;11026;50.560;17.852;2023-03-01T04:26:22;100843.56;;;-5.63;100.00
21728;BME280;11026;50.560;17.852;2023-03-01T04:28:52;100833.66;;;-5.54;100.00
21728;BME280;11026;50.560;17.852;2023-03-01T04:31:20;100841.28;;;-5.77;100.00
21728;BME280;11026;50.560;17.852;2023-03-01T04:33:54;100841.16;;;-5.80;100.00
21728;BME280;11026;50.560;17.852;2023-03-01T04:36:25;100842.31;;;-5.73;100.00
21728;BME280;11026;50.560;17.852;2023-03-01T04:38:54;100841.25;;;-5.57;100.00
21728;BME280;11026;50.560;17.852;2023-03-01T04:41:24;100838.53;;;-5.39;100.00
21728;BME280;11026;50.560;17.852;2023-03-01T04:43:55;100832.78;;;-5.34;100.00
21728;BME280;11026;50.560;17.852;2023-03-01T04:46:23;100831.72;;;-5.58;100.00
21728;BME280;11026;50.560;17.852;2023-03-01T04:48:50;100838.81;;;-5.54;100.00
21728;BME280;11026;50.560;17.852;2023-03-01T04:51:19;100834.75;;;-5.27;100.00
21728;BME280;11026;50.560;17.852;2023-03-01T04:53:46;100833.34;;;-5.41;100.00
21728;BME280;11026;50.560;17.852;2023-03-01T04:56:14;100826.28;;;-5.45;100.00
21728;BME280;11026;50.560;17.852;2023-03-01T04:58:43;100823.16;;;-5.38;100.00
21728;BME280;11026;50.560;17.852;2023-03-01T05:01:13;100828.59;;;-5.51;100.00
21728;BME280;11026;50.560;17.852;2023-03-01T05:03:47;100827.72;;;-5.73;100.00
21728;BME280;11026;50.560;17.852;2023-03-01T05:06:15;100837.38;;;-5.88;100.00
21728;BME280;11026;50.560;17.852;2023-03-01T05:08:44;100833.75;;;-5.93;100.00
21728;BME280;11026;50.560;17.852;2023-03-01T05:11:11;100826.19;;;-6.09;100.00
21728;BME280;11026;50.560;17.852;2023-03-01T05:13:39;100832.72;;;-6.17;100.00
21728;BME280;11026;50.560;17.852;2023-03-01T05:16:08;100826.66;;;-6.18;100.00
21728;BME280;11026;50.560;17.852;2023-03-01T05:18:39;100815.13;;;-6.07;100.00
21728;BME280;11026;50.560;17.852;2023-03-01T05:21:09;100819.34;;;-5.67;100.00
21728;BME280;11026;50.560;17.852;2023-03-01T05:23:38;100824.00;;;-5.58;100.00
21728;BME280;11026;50.560;17.852;2023-03-01T05:26:06;100819.34;;;-5.67;100.00
21728;BME280;11026;50.560;17.852;2023-03-01T05:28:48;100821.22;;;-5.84;100.00
21728;BME280;11026;50.560;17.852;2023-03-01T05:31:15;100813.50;;;-5.84;100.00
21728;BME280;11026;50.560;17.852;2023-03-01T05:33:43;100818.91;;;-5.99;100.00
21728;BME280;11026;50.560;17.852;2023-03-01T05:36:10;100821.63;;;-6.15;100.00
21728;BME280;11026;50.560;17.852;2023-03-01T05:38:40;100828.47;;;-5.96;100.00
21728;BME280;11026;50.560;17.852;2023-03-01T05:41:14;100819.78;;;-5.98;100.00
21728;BME280;11026;50.560;17.852;2023-03-01T05:43:42;100823.13;;;-6.01;100.00
21728;BME280;11026;50.560;17.852;2023-03-01T05:46:12;100823.47;;;-6.12;100.00
21728;BME280;11026;50.560;17.852;2023-03-01T05:48:46;100829.16;;;-6.20;100.00
21728;BME280;11026;50.560;17.852;2023-03-01T05:51:15;100832.09;;;-6.12;100.00
21728;BME280;11026;50.560;17.852;2023-03-01T05:53:43;100830.38;;;-5.92;100.00
21728;BME280;11026;50.560;17.852;2023-03-01T05:56:11;100826.56;;;-5.79;100.00
21728;BME280;11026;50.560;17.852;2023-03-01T05:58:38;100836.88;;;-6.00;100.00
21728;BME280;11026;50.560;17.852;2023-03-01T06:01:11;100845.81;;;-5.92;100.00
21728;BME280;11026;50.560;17.852;2023-03-01T06:03:41;100844.69;;;-5.78;100.00
21728;BME280;11026;50.560;17.852;2023-03-01T06:06:08;100848.06;;;-5.79;100.00
21728;BME280;11026;50.560;17.852;2023-03-01T06:08:36;100845.59;;;-5.56;100.00
21728;BME280;11026;50.560;17.852;2023-03-01T06:11:03;100849.63;;;-5.42;100.00
21728;BME280;11026;50.560;17.852;2023-03-01T06:13:32;100853.41;;;-5.34;100.00
21728;BME280;11026;50.560;17.852;2023-03-01T06:15:59;100845.28;;;-5.43;100.00
21728;BME280;11026;50.560;17.852;2023-03-01T06:18:26;100851.03;;;-5.50;100.00
21728;BME280;11026;50.560;17.852;2023-03-01T06:20:55;100845.59;;;-5.35;100.00
21728;BME280;11026;50.560;17.852;2023-03-01T06:23:23;100853.97;;;-5.41;100.00
21728;BME280;11026;50.560;17.852;2023-03-01T06:25:51;100851.38;;;-5.41;100.00
21728;BME280;11026;50.560;17.852;2023-03-01T06:28:18;100858.44;;;-5.37;100.00
21728;BME280;11026;50.560;17.852;2023-03-01T06:30:46;100865.97;;;-5.21;100.00
21728;BME280;11026;50.560;17.852;2023-03-01T06:33:14;100862.75;;;-5.15;100.00
21728;BME280;11026;50.560;17.852;2023-03-01T06:35:41;100857.50;;;-4.96;100.00
21728;BME280;11026;50.560;17.852;2023-03-01T06:38:09;100851.38;;;-4.77;100.00
21728;BME280;11026;50.560;17.852;2023-03-01T06:40:36;100856.13;;;-4.65;100.00
21728;BME280;11026;50.560;17.852;2023-03-01T06:43:04;100867.00;;;-4.51;100.00
21728;BME280;11026;50.560;17.852;2023-03-01T06:45:31;100855.28;;;-4.41;100.00
21728;BME280;11026;50.560;17.852;2023-03-01T06:48:07;100857.25;;;-4.58;100.00
21728;BME280;11026;50.560;17.852;2023-03-01T06:50:35;100856.47;;;-4.56;100.00
21728;BME280;11026;50.560;17.852;2023-03-01T06:53:03;100859.72;;;-4.39;100.00
21728;BME280;11026;50.560;17.852;2023-03-01T06:55:32;100859.56;;;-4.19;100.00
21728;BME280;11026;50.560;17.852;2023-03-01T06:58:02;100851.31;;;-4.09;100.00
21728;BME280;11026;50.560;17.852;2023-03-01T07:00:30;100844.06;;;-4.19;100.00
21728;BME280;11026;50.560;17.852;2023-03-01T07:02:59;100845.09;;;-4.14;100.00
21728;BME280;11026;50.560;17.852;2023-03-01T07:05:26;100840.75;;;-3.91;100.00
21728;BME280;11026;50.560;17.852;2023-03-01T07:07:54;100842.16;;;-3.76;100.00
21728;BME280;11026;50.560;17.852;2023-03-01T07:10:31;100833.88;;;-3.65;100.00
21728;BME280;11026;50.560;17.852;2023-03-01T07:12:58;100831.41;;;-3.62;100.00
21728;BME280;11026;50.560;17.852;2023-03-01T07:15:28;100829.72;;;-3.60;100.00
21728;BME280;11026;50.560;17.852;2023-03-01T07:17:56;100829.44;;;-3.44;100.00
21728;BME280;11026;50.560;17.852;2023-03-01T07:20:23;100830.66;;;-3.33;100.00
21728;BME280;11026;50.560;17.852;2023-03-01T07:22:53;100833.97;;;-3.10;100.00
21728;BME280;11026;50.560;17.852;2023-03-01T07:25:22;100836.19;;;-2.95;100.00
21728;BME280;11026;50.560;17.852;2023-03-01T07:27:51;100819.53;;;-2.75;100.00
21728;BME280;11026;50.560;17.852;2023-03-01T07:30:19;100819.53;;;-2.75;100.00
21728;BME280;11026;50.560;17.852;2023-03-01T07:32:47;100812.34;;;-2.56;100.00
21728;BME280;11026;50.560;17.852;2023-03-01T07:35:14;100807.28;;;-2.52;100.00
21728;BME280;11026;50.560;17.852;2023-03-01T07:37:42;100808.34;;;-2.45;100.00
21728;BME280;11026;50.560;17.852;2023-03-01T07:40:17;100808.41;;;-2.42;100.00
21728;BME280;11026;50.560;17.852;2023-03-01T07:42:44;100807.25;;;-2.53;100.00
21728;BME280;11026;50.560;17.852;2023-03-01T07:45:12;100815.09;;;-2.50;100.00
21728;BME280;11026;50.560;17.852;2023-03-01T07:47:40;100811.06;;;-2.40;100.00
21728;BME280;11026;50.560;17.852;2023-03-01T07:50:10;100814.09;;;-2.25;100.00
21728;BME280;11026;50.560;17.852;2023-03-01T07:52:38;100811.53;;;-2.24;100.00
21728;BME280;11026;50.560;17.852;2023-03-01T07:55:07;100810.13;;;-2.12;100.00
21728;BME280;11026;50.560;17.852;2023-03-01T07:57:35;100811.13;;;-2.07;100.00
21728;BME280;11026;50.560;17.852;2023-03-01T08:00:04;100805.13;;;-1.73;99.62
21728;BME280;11026;50.560;17.852;2023-03-01T08:02:31;100808.91;;;-1.60;98.15
21728;BME280;11026;50.560;17.852;2023-03-01T08:04:59;100808.31;;;-1.50;97.16
21728;BME280;11026;50.560;17.852;2023-03-01T08:07:26;100806.31;;;-1.26;96.47
21728;BME280;11026;50.560;17.852;2023-03-01T08:09:54;100801.50;;;-1.10;94.25
21728;BME280;11026;50.560;17.852;2023-03-01T08:12:23;100805.25;;;-0.96;92.55
21728;BME280;11026;50.560;17.852;2023-03-01T08:14:55;100802.22;;;-0.78;91.57
21728;BME280;11026;50.560;17.852;2023-03-01T08:17:22;100803.25;;;-0.70;90.72
21728;BME280;11026;50.560;17.852;2023-03-01T08:19:50;100806.38;;;-0.47;90.22
21728;BME280;11026;50.560;17.852;2023-03-01T08:22:17;100804.75;;;-0.40;88.47
21728;BME280;11026;50.560;17.852;2023-03-01T08:24:46;100806.72;;;-0.29;86.86
21728;BME280;11026;50.560;17.852;2023-03-01T08:27:15;100795.75;;;-0.12;85.90
21728;BME280;11026;50.560;17.852;2023-03-01T08:29:43;100791.66;;;-0.01;84.74
21728;BME280;11026;50.560;17.852;2023-03-01T08:32:11;100798.09;;;0.18;83.35
21728;BME280;11026;50.560;17.852;2023-03-01T08:34:40;100797.50;;;0.33;80.87
21728;BME280;11026;50.560;17.852;2023-03-01T08:37:08;100800.31;;;0.46;78.47
21728;BME280;11026;50.560;17.852;2023-03-01T08:39:36;100799.56;;;0.54;76.13
21728;BME280;11026;50.560;17.852;2023-03-01T08:42:04;100797.22;;;0.67;73.92
21728;BME280;11026;50.560;17.852;2023-03-01T08:44:31;100788.69;;;0.79;74.01
21728;BME280;11026;50.560;17.852;2023-03-01T08:46:59;100788.06;;;0.94;75.98
21728;BME280;11026;50.560;17.852;2023-03-01T08:49:27;100786.63;;;1.14;77.00
21728;BME280;11026;50.560;17.852;2023-03-01T08:51:54;100790.28;;;1.27;76.58
21728;BME280;11026;50.560;17.852;2023-03-01T08:54:23;100786.94;;;1.36;75.99
21728;BME280;11026;50.560;17.852;2023-03-01T08:56:50;100779.16;;;1.40;76.27
21728;BME280;11026;50.560;17.852;2023-03-01T08:59:19;100764.53;;;1.53;76.21
21728;BME280;11026;50.560;17.852;2023-03-01T09:01:46;100764.78;;;1.71;76.52
21728;BME280;11026;50.560;17.852;2023-03-01T09:04:15;100769.34;;;1.92;75.86
21728;BME280;11026;50.560;17.852;2023-03-01T09:06:43;100771.28;;;2.12;74.21
21728;BME280;11026;50.560;17.852;2023-03-01T09:09:17;100767.13;;;2.31;72.60
21728;BME280;11026;50.560;17.852;2023-03-01T09:11:45;100778.63;;;2.50;72.13
21728;BME280;11026;50.560;17.852;2023-03-01T09:14:14;100773.50;;;2.65;72.02
21728;BME280;11026;50.560;17.852;2023-03-01T09:16:42;100772.84;;;2.92;71.54
21728;BME280;11026;50.560;17.852;2023-03-01T09:19:10;100776.59;;;3.34;70.63
21728;BME280;11026;50.560;17.852;2023-03-01T09:21:39;100774.22;;;3.97;68.66
21728;BME280;11026;50.560;17.852;2023-03-01T09:24:12;100767.25;;;5.16;64.37
21728;BME280;11026;50.560;17.852;2023-03-01T09:26:41;100756.91;;;6.62;59.47
21728;BME280;11026;50.560;17.852;2023-03-01T09:29:12;100746.59;;;7.98;55.88
21728;BME280;11026;50.560;17.852;2023-03-01T09:31:39;100750.16;;;9.05;52.94
21728;BME280;11026;50.560;17.852;2023-03-01T09:34:08;100749.91;;;9.64;50.83
21728;BME280;11026;50.560;17.852;2023-03-01T09:36:37;100757.44;;;10.23;49.29
21728;BME280;11026;50.560;17.852;2023-03-01T09:39:05;100747.88;;;10.54;48.38
21728;BME280;11026;50.560;17.852;2023-03-01T09:41:49;100745.88;;;10.98;46.31
21728;BME280;11026;50.560;17.852;2023-03-01T09:44:52;100752.25;;;11.24;44.98
21728;BME280;11026;50.560;17.852;2023-03-01T09:47:24;100758.00;;;11.71;43.40
21728;BME280;11026;50.560;17.852;2023-03-01T09:53:30;100753.16;;;12.15;41.81
21728;BME280;11026;50.560;17.852;2023-03-01T09:56:02;100764.38;;;12.52;40.66
21728;BME280;11026;50.560;17.852;2023-03-01T10:07:09;100773.22;;;13.04;37.56
21728;BME280;11026;50.560;17.852;2023-03-01T10:09:43;100759.19;;;13.27;37.53
21728;BME280;11026;50.560;17.852;2023-03-01T10:12:17;100751.28;;;13.49;38.27
21728;BME280;11026;50.560;17.852;2023-03-01T10:17:41;100752.31;;;13.70;36.66
21728;BME280;11026;50.560;17.852;2023-03-01T10:20:22;100747.38;;;13.83;36.91
21728;BME280;11026;50.560;17.852;2023-03-01T10:22:51;100746.09;;;13.93;37.13
21728;BME280;11026;50.560;17.852;2023-03-01T10:25:46;100746.88;;;14.19;36.84
21728;BME280;11026;50.560;17.852;2023-03-01T10:30:57;100733.53;;;14.85;35.62
21728;BME280;11026;50.560;17.852;2023-03-01T10:33:37;100732.63;;;14.86;34.55
21728;BME280;11026;50.560;17.852;2023-03-01T10:36:08;100729.31;;;15.01;35.34
21728;BME280;11026;50.560;17.852;2023-03-01T10:38:51;100725.56;;;15.25;34.82
21728;BME280;11026;50.560;17.852;2023-03-01T10:41:22;100729.78;;;14.68;34.00
21728;BME280;11026;50.560;17.852;2023-03-01T10:43:56;100723.66;;;14.44;34.85
21728;BME280;11026;50.560;17.852;2023-03-01T10:46:35;100719.75;;;14.75;35.03
21728;BME280;11026;50.560;17.852;2023-03-01T10:49:13;100723.25;;;14.97;34.93
21728;BME280;11026;50.560;17.852;2023-03-01T10:51:47;100713.47;;;15.37;34.59
21728;BME280;11026;50.560;17.852;2023-03-01T10:54:22;100714.34;;;15.77;32.96
21728;BME280;11026;50.560;17.852;2023-03-01T10:56:57;100709.34;;;15.30;34.78
21728;BME280;11026;50.560;17.852;2023-03-01T10:59:31;100706.13;;;16.01;33.25
21728;BME280;11026;50.560;17.852;2023-03-01T11:02:25;100703.84;;;16.29;32.78
21728;BME280;11026;50.560;17.852;2023-03-01T11:04:59;100700.53;;;16.24;32.04
21728;BME280;11026;50.560;17.852;2023-03-01T11:08:03;100694.75;;;15.39;31.77
21728;BME280;11026;50.560;17.852;2023-03-01T11:10:35;100687.78;;;15.16;31.74
21728;BME280;11026;50.560;17.852;2023-03-01T11:13:21;100690.44;;;14.95;32.41
21728;BME280;11026;50.560;17.852;2023-03-01T11:16:06;100691.53;;;14.91;32.67
21728;BME280;11026;50.560;17.852;2023-03-01T11:19:19;100694.13;;;15.32;31.23
21728;BME280;11026;50.560;17.852;2023-03-01T11:21:58;100683.34;;;15.93;30.59
21728;BME280;11026;50.560;17.852;2023-03-01T11:24:42;100676.34;;;16.27;30.11
21728;BME280;11026;50.560;17.852;2023-03-01T11:27:19;100670.09;;;16.45;30.17
21728;BME280;11026;50.560;17.852;2023-03-01T11:32:50;100679.47;;;15.03;30.65
21728;BME280;11026;50.560;17.852;2023-03-01T11:35:28;100675.78;;;15.64;30.89
21728;BME280;11026;50.560;17.852;2023-03-01T11:38:15;100668.75;;;15.63;30.63
21728;BME280;11026;50.560;17.852;2023-03-01T11:40:48;100667.06;;;16.17;31.56
21728;BME280;11026;50.560;17.852;2023-03-01T11:43:39;100664.31;;;16.89;31.08
21728;BME280;11026;50.560;17.852;2023-03-01T11:52:05;100656.09;;;17.10;32.67
21728;BME280;11026;50.560;17.852;2023-03-01T11:54:55;100660.97;;;17.19;32.20
21728;BME280;11026;50.560;17.852;2023-03-01T12:03:22;100655.72;;;17.33;31.16
21728;BME280;11026;50.560;17.852;2023-03-01T12:06:26;100657.47;;;17.83;30.42
21728;BME280;11026;50.560;17.852;2023-03-01T12:15:04;100640.41;;;18.16;30.80
21728;BME280;11026;50.560;17.852;2023-03-01T12:29:21;100617.31;;;16.68;30.29
21728;BME280;11026;50.560;17.852;2023-03-01T12:32:00;100621.47;;;17.24;30.81
21728;BME280;11026;50.560;17.852;2023-03-01T12:50:53;100606.53;;;16.35;30.41
21728;BME280;11026;50.560;17.852;2023-03-01T12:53:33;100601.47;;;16.47;30.46
21728;BME280;11026;50.560;17.852;2023-03-01T12:56:23;100598.44;;;17.37;30.53
21728;BME280;11026;50.560;17.852;2023-03-01T12:59:13;100597.44;;;17.56;29.06
21728;BME280;11026;50.560;17.852;2023-03-01T13:04:58;100585.22;;;18.74;28.16
21728;BME280;11026;50.560;17.852;2023-03-01T13:07:37;100591.56;;;18.87;27.70
21728;BME280;11026;50.560;17.852;2023-03-01T13:15:36;100569.25;;;18.86;27.30
21728;BME280;11026;50.560;17.852;2023-03-01T13:26:06;100568.00;;;19.21;27.23
21728;BME280;11026;50.560;17.852;2023-03-01T13:33:47;100562.06;;;17.66;28.48
21728;BME280;11026;50.560;17.852;2023-03-01T13:38:57;100553.75;;;16.57;29.44
21728;BME280;11026;50.560;17.852;2023-03-01T13:46:53;100561.09;;;18.74;27.57
21728;BME280;11026;50.560;17.852;2023-03-01T13:49:23;100558.47;;;18.58;27.86
21728;BME280;11026;50.560;17.852;2023-03-01T13:51:53;100557.84;;;19.11;27.16
21728;BME280;11026;50.560;17.852;2023-03-01T13:54:30;100562.16;;;19.14;26.87
21728;BME280;11026;50.560;17.852;2023-03-01T13:57:00;100548.09;;;18.82;27.42
21728;BME280;11026;50.560;17.852;2023-03-01T13:59:28;100547.41;;;19.21;26.79
21728;BME280;11026;50.560;17.852;2023-03-01T14:01:59;100551.34;;;19.01;27.58
21728;BME280;11026;50.560;17.852;2023-03-01T14:04:29;100549.38;;;18.46;27.20
21728;BME280;11026;50.560;17.852;2023-03-01T14:09:47;100541.19;;;19.06;26.84
21728;BME280;11026;50.560;17.852;2023-03-01T14:15:23;100527.31;;;18.27;27.51
21728;BME280;11026;50.560;17.852;2023-03-01T14:20:43;100524.81;;;17.93;28.22
21728;BME280;11026;50.560;17.852;2023-03-01T14:23:21;100515.06;;;17.92;27.87
21728;BME280;11026;50.560;17.852;2023-03-01T14:25:57;100522.69;;;18.14;28.00
21728;BME280;11026;50.560;17.852;2023-03-01T14:28:27;100513.03;;;18.12;27.99
21728;BME280;11026;50.560;17.852;2023-03-01T14:30:57;100516.69;;;18.25;26.97
21728;BME280;11026;50.560;17.852;2023-03-01T14:33:35;100507.22;;;17.89;27.86
21728;BME280;11026;50.560;17.852;2023-03-01T14:36:13;100506.47;;;17.56;28.33
21728;BME280;11026;50.560;17.852;2023-03-01T14:38:46;100504.69;;;17.25;28.30
21728;BME280;11026;50.560;17.852;2023-03-01T14:41:25;100504.50;;;17.43;28.36
21728;BME280;11026;50.560;17.852;2023-03-01T14:44:00;100501.53;;;17.64;28.13
21728;BME280;11026;50.560;17.852;2023-03-01T14:46:39;100494.13;;;17.53;28.23
21728;BME280;11026;50.560;17.852;2023-03-01T14:49:10;100491.00;;;17.61;28.97
21728;BME280;11026;50.560;17.852;2023-03-01T14:51:42;100485.31;;;17.67;28.20